createdAt,value
2018-05-31T00:00:41.032Z,23.38
2018-05-31T00:03:08.488Z,23.38
2018-05-31T00:05:35.917Z,23.38
2018-05-31T00:08:02.603Z,23.38
2018-05-31T00:10:29.296Z,23.25
2018-05-31T00:12:56.000Z,23.19
2018-05-31T00:15:22.740Z,23.17
2018-05-31T00:17:49.457Z,23.14
2018-05-31T00:20:16.109Z,23.06
2018-05-31T00:22:42.798Z,23.05
2018-05-31T00:25:10.220Z,23.08
2018-05-31T00:27:36.952Z,22.98
2018-05-31T00:30:03.628Z,22.95
2018-05-31T00:32:31.152Z,22.96
2018-05-31T00:34:58.101Z,23.06
2018-05-31T00:37:25.560Z,23.25
2018-05-31T00:39:52.349Z,23.02
2018-05-31T00:42:18.996Z,22.96
2018-05-31T00:44:46.517Z,23.21
2018-05-31T00:47:13.246Z,23.20
2018-05-31T00:49:39.948Z,23.33
2018-05-31T00:52:06.615Z,23.27
2018-05-31T00:54:33.306Z,23.24
2018-05-31T00:57:00.706Z,23.13
2018-05-31T00:59:27.514Z,22.99
2018-05-31T01:01:54.895Z,23.02
2018-05-31T01:04:21.550Z,22.99
2018-05-31T01:06:48.236Z,23.01
2018-05-31T01:09:14.900Z,22.96
2018-05-31T01:11:41.524Z,22.97
2018-05-31T01:14:08.934Z,22.95
2018-05-31T01:16:35.681Z,22.92
2018-05-31T01:19:02.337Z,22.91
2018-05-31T01:21:29.157Z,22.88
2018-05-31T01:23:55.826Z,22.95
2018-05-31T01:26:24.136Z,22.92
2018-05-31T01:28:51.695Z,22.88
2018-05-31T01:31:18.372Z,22.87
2018-05-31T01:33:45.037Z,22.86
2018-05-31T01:36:11.759Z,22.85
2018-05-31T01:38:38.433Z,22.84
2018-05-31T01:41:05.858Z,22.85
2018-05-31T01:43:32.561Z,22.74
2018-05-31T01:45:59.480Z,22.70
2018-05-31T01:48:26.929Z,22.61
2018-05-31T01:50:54.415Z,22.60
2018-05-31T01:53:21.092Z,22.56
2018-05-31T01:55:47.796Z,22.49
2018-05-31T01:58:14.509Z,22.32
2018-05-31T02:00:41.916Z,22.20
2018-05-31T02:03:08.575Z,22.14
2018-05-31T02:05:35.214Z,22.23
2018-05-31T02:08:01.888Z,22.28
2018-05-31T02:10:29.324Z,22.26
2018-05-31T02:12:56.050Z,22.27
2018-05-31T02:15:22.752Z,22.15
2018-05-31T02:17:49.413Z,22.06
2018-05-31T02:20:16.130Z,21.90
2018-05-31T02:22:42.778Z,21.86
2018-05-31T02:25:09.479Z,21.93
2018-05-31T02:27:36.881Z,21.84
2018-05-31T02:30:03.557Z,21.73
2018-05-31T02:32:30.233Z,21.70
2018-05-31T02:34:57.040Z,21.73
2018-05-31T02:37:23.735Z,21.80
2018-05-31T02:39:50.383Z,21.86
2018-05-31T02:42:17.143Z,21.93
2018-05-31T02:44:43.797Z,21.96
2018-05-31T02:47:10.632Z,22.00
2018-05-31T02:49:37.297Z,22.03
2018-05-31T02:52:04.777Z,22.02
2018-05-31T02:54:31.401Z,21.85
2018-05-31T02:56:58.212Z,21.74
2018-05-31T02:59:25.845Z,21.66
2018-05-31T03:01:52.502Z,21.71
2018-05-31T03:04:19.149Z,21.79
2018-05-31T03:06:45.823Z,21.93
2018-05-31T03:09:13.242Z,22.02
2018-05-31T03:11:39.967Z,22.11
2018-05-31T03:14:06.634Z,22.15
2018-05-31T03:16:33.256Z,22.19
2018-05-31T03:18:59.936Z,22.21
2018-05-31T03:21:27.319Z,22.18
2018-05-31T03:23:54.017Z,22.23
2018-05-31T03:26:20.835Z,22.18
2018-05-31T03:28:47.479Z,22.16
2018-05-31T03:31:14.176Z,22.12
2018-05-31T03:33:40.819Z,22.06
2018-05-31T03:36:07.469Z,22.02
2018-05-31T03:38:34.156Z,22.10
2018-05-31T03:41:01.584Z,22.13
2018-05-31T03:43:28.276Z,22.14
2018-05-31T03:45:54.953Z,22.14
2018-05-31T03:48:21.622Z,22.21
2018-05-31T03:50:48.336Z,22.29
2018-05-31T03:53:15.088Z,22.17
2018-05-31T03:55:41.729Z,22.20
2018-05-31T03:58:08.384Z,22.13
2018-05-31T04:00:36.041Z,22.18
2018-05-31T04:03:03.507Z,22.20
2018-05-31T04:05:30.314Z,22.33
2018-05-31T04:07:57.014Z,22.35
2018-05-31T04:10:24.404Z,22.30
2018-05-31T04:12:51.089Z,22.34
2018-05-31T04:15:17.788Z,22.44
2018-05-31T04:17:44.475Z,22.51
2018-05-31T04:20:11.928Z,22.66
2018-05-31T04:22:39.371Z,22.76
2018-05-31T04:25:06.029Z,22.86
2018-05-31T04:27:33.547Z,22.95
2018-05-31T04:30:00.213Z,23.02
2018-05-31T04:32:28.351Z,23.17
2018-05-31T04:34:54.976Z,23.11
2018-05-31T04:37:21.811Z,23.20
2018-05-31T04:39:48.452Z,23.19
2018-05-31T04:42:15.120Z,23.23
2018-05-31T04:44:41.887Z,23.31
2018-05-31T04:47:10.045Z,23.12
2018-05-31T04:49:36.833Z,23.12
2018-05-31T04:52:03.464Z,23.12
2018-05-31T04:54:30.247Z,23.08
2018-05-31T04:56:56.879Z,23.21
2018-05-31T04:59:23.540Z,23.35
2018-05-31T05:01:50.235Z,23.54
2018-05-31T05:04:17.018Z,23.70
2018-05-31T05:06:43.704Z,23.84
2018-05-31T05:09:10.496Z,23.97
2018-05-31T05:11:37.130Z,24.01
2018-05-31T05:14:03.770Z,23.99
2018-05-31T05:16:30.486Z,24.02
2018-05-31T05:18:57.120Z,24.13
2018-05-31T05:21:23.784Z,24.20
2018-05-31T05:23:50.437Z,24.31
2018-05-31T05:26:17.171Z,24.45
2018-05-31T05:28:43.915Z,24.49
2018-05-31T05:31:10.609Z,24.54
2018-05-31T05:33:37.259Z,24.60
2018-05-31T05:36:04.036Z,24.71
2018-05-31T05:38:30.708Z,24.70
2018-05-31T05:40:58.084Z,24.73
2018-05-31T05:43:24.768Z,24.78
2018-05-31T05:45:51.426Z,24.91
2018-05-31T05:48:18.069Z,25.06
2018-05-31T05:50:46.207Z,25.16
2018-05-31T05:53:12.923Z,25.18
2018-05-31T05:55:39.556Z,25.18
2018-05-31T05:58:06.222Z,25.10
2018-05-31T06:00:32.936Z,25.11
2018-05-31T06:02:59.684Z,25.22
2018-05-31T06:05:26.455Z,25.27
2018-05-31T06:07:53.316Z,25.41
2018-05-31T06:10:20.295Z,25.49
2018-05-31T06:12:48.424Z,25.53
2018-05-31T06:15:15.072Z,25.67
2018-05-31T06:17:41.869Z,25.78
2018-05-31T06:20:08.632Z,25.83
2018-05-31T06:22:35.428Z,25.98
2018-05-31T06:25:03.092Z,25.99
2018-05-31T06:27:30.647Z,26.03
2018-05-31T06:29:58.053Z,25.94
2018-05-31T06:32:24.941Z,25.81
2018-05-31T06:34:51.652Z,25.62
2018-05-31T06:37:18.515Z,25.49
2018-05-31T06:39:45.174Z,25.37
2018-05-31T06:42:12.030Z,25.30
2018-05-31T06:44:39.483Z,25.40
2018-05-31T06:47:06.920Z,25.50
2018-05-31T06:49:33.829Z,25.61
2018-05-31T06:52:00.484Z,25.78
2018-05-31T06:54:27.118Z,26.00
2018-05-31T06:56:54.247Z,26.18
2018-05-31T06:59:20.912Z,26.32
2018-05-31T07:01:47.585Z,26.37
2018-05-31T07:04:15.282Z,26.45
2018-05-31T07:06:41.969Z,26.60
2018-05-31T07:09:08.664Z,26.72
2018-05-31T07:11:35.365Z,26.81
2018-05-31T07:14:02.984Z,26.88
2018-05-31T07:16:29.781Z,26.85
2018-05-31T07:18:57.350Z,26.65
2018-05-31T07:21:24.539Z,26.53
2018-05-31T07:23:51.336Z,26.50
2018-05-31T07:26:18.740Z,26.69
2018-05-31T07:28:45.432Z,26.79
2018-05-31T07:31:13.052Z,26.87
2018-05-31T07:33:39.833Z,26.91
2018-05-31T07:36:07.250Z,27.03
2018-05-31T07:38:33.936Z,27.16
2018-05-31T07:41:01.359Z,27.13
2018-05-31T07:43:28.105Z,27.12
2018-05-31T07:45:54.869Z,27.18
2018-05-31T07:48:22.259Z,27.13
2018-05-31T07:50:48.985Z,27.21
2018-05-31T07:53:15.730Z,27.32
2018-05-31T07:55:42.331Z,27.31
2018-05-31T07:58:09.027Z,27.26
2018-05-31T08:00:35.722Z,27.25
2018-05-31T08:03:03.175Z,27.09
2018-05-31T08:05:30.712Z,26.95
2018-05-31T08:07:57.340Z,27.05
2018-05-31T08:10:24.030Z,27.13
2018-05-31T08:12:50.692Z,27.25
2018-05-31T08:15:17.341Z,27.32
2018-05-31T08:17:44.041Z,27.45
2018-05-31T08:20:11.569Z,27.55
2018-05-31T08:22:38.234Z,27.57
2018-05-31T08:25:05.640Z,27.65
2018-05-31T08:27:32.313Z,27.65
2018-05-31T08:29:58.978Z,27.67
2018-05-31T08:32:26.371Z,27.70
2018-05-31T08:34:53.054Z,27.54
2018-05-31T08:37:19.849Z,27.54
2018-05-31T08:39:46.518Z,27.14
2018-05-31T08:42:13.282Z,26.98
2018-05-31T08:44:40.665Z,26.82
2018-05-31T08:47:07.334Z,26.45
2018-05-31T08:49:34.018Z,26.47
2018-05-31T08:52:01.428Z,26.59
2018-05-31T08:54:28.151Z,26.42
2018-05-31T08:56:54.812Z,26.23
2018-05-31T08:59:22.238Z,26.49
2018-05-31T09:01:49.293Z,26.73
2018-05-31T09:04:16.006Z,26.90
2018-05-31T09:06:43.421Z,27.03
2018-05-31T09:09:10.173Z,27.11
2018-05-31T09:11:36.846Z,27.17
2018-05-31T09:14:04.305Z,27.18
2018-05-31T09:16:31.704Z,27.22
2018-05-31T09:18:58.359Z,27.31
2018-05-31T09:21:25.043Z,27.39
2018-05-31T09:23:51.733Z,27.32
2018-05-31T09:26:18.354Z,27.33
2018-05-31T09:28:45.046Z,27.47
2018-05-31T09:31:12.449Z,27.57
2018-05-31T09:33:39.085Z,27.58
2018-05-31T09:36:05.746Z,27.68
2018-05-31T09:38:32.509Z,27.78
2018-05-31T09:40:59.370Z,27.96
2018-05-31T09:43:26.829Z,28.08
2018-05-31T09:45:54.243Z,28.34
2018-05-31T09:48:20.897Z,28.50
2018-05-31T09:50:47.591Z,28.55
2018-05-31T09:53:14.272Z,28.63
2018-05-31T09:55:40.968Z,28.02
2018-05-31T09:58:07.657Z,28.07
2018-05-31T10:00:37.197Z,28.05
2018-05-31T10:03:03.918Z,28.06
2018-05-31T10:05:30.634Z,27.97
2018-05-31T10:07:57.292Z,27.48
2018-05-31T10:10:24.672Z,27.41
2018-05-31T10:12:52.068Z,27.33
2018-05-31T10:15:18.742Z,27.31
2018-05-31T10:17:45.595Z,27.40
2018-05-31T10:20:13.085Z,27.46
2018-05-31T10:22:39.732Z,27.52
2018-05-31T10:25:06.454Z,27.60
2018-05-31T10:27:33.915Z,27.70
2018-05-31T10:30:00.726Z,27.78
2018-05-31T10:32:28.100Z,27.89
2018-05-31T10:34:55.494Z,27.94
2018-05-31T10:37:22.141Z,28.02
2018-05-31T10:39:48.789Z,28.13
2018-05-31T10:42:22.462Z,28.17
2018-05-31T10:44:49.078Z,28.29
2018-05-31T10:47:16.486Z,28.40
2018-05-31T10:49:43.119Z,28.39
2018-05-31T10:52:09.837Z,28.52
2018-05-31T10:54:36.486Z,28.68
2018-05-31T10:57:03.239Z,28.83
2018-05-31T10:59:29.889Z,29.01
2018-05-31T11:01:57.358Z,29.25
2018-05-31T11:04:24.849Z,29.52
2018-05-31T11:06:51.745Z,29.62
2018-05-31T11:09:18.552Z,29.72
2018-05-31T11:11:45.997Z,29.57
2018-05-31T11:14:12.857Z,29.50
2018-05-31T11:16:39.675Z,29.26
2018-05-31T11:19:07.088Z,29.16
2018-05-31T11:21:33.767Z,29.15
2018-05-31T11:24:01.432Z,28.97
2018-05-31T11:26:28.812Z,28.95
2018-05-31T11:28:55.485Z,28.96
2018-05-31T11:31:22.163Z,28.77
2018-05-31T11:33:49.600Z,28.66
2018-05-31T11:36:16.280Z,28.71
2018-05-31T11:38:42.946Z,28.68
2018-05-31T11:41:09.601Z,28.83
2018-05-31T11:43:36.251Z,28.91
2018-05-31T11:46:02.928Z,29.03
2018-05-31T11:48:30.304Z,29.01
2018-05-31T11:50:56.988Z,28.93
2018-05-31T11:53:23.655Z,28.96
2018-05-31T11:55:51.243Z,29.02
2018-05-31T11:58:17.912Z,28.95
2018-05-31T12:00:44.620Z,29.02
2018-05-31T12:03:11.293Z,28.86
2018-05-31T12:05:37.987Z,28.80
2018-05-31T12:08:04.714Z,28.85
2018-05-31T12:10:32.102Z,28.97
2018-05-31T12:12:58.814Z,28.85
2018-05-31T12:15:25.561Z,28.24
2018-05-31T12:17:52.228Z,28.05
2018-05-31T12:20:19.808Z,28.27
2018-05-31T12:22:46.555Z,28.63
2018-05-31T12:25:13.189Z,28.68
2018-05-31T12:27:39.858Z,28.86
2018-05-31T12:30:07.266Z,29.18
2018-05-31T12:32:33.895Z,29.55
2018-05-31T12:35:00.577Z,29.74
2018-05-31T12:37:27.247Z,29.76
2018-05-31T12:39:54.684Z,29.76
2018-05-31T12:42:21.325Z,29.74
2018-05-31T12:44:48.772Z,29.82
2018-05-31T12:47:15.413Z,29.78
2018-05-31T12:49:42.156Z,29.90
2018-05-31T12:52:08.823Z,29.64
2018-05-31T12:54:36.207Z,29.14
2018-05-31T12:57:03.816Z,29.45
2018-05-31T12:59:34.850Z,29.68
2018-05-31T13:02:01.519Z,29.70
2018-05-31T13:04:29.032Z,29.73
2018-05-31T13:06:55.842Z,29.84
2018-05-31T13:09:22.502Z,30.09
2018-05-31T13:11:49.996Z,29.26
2018-05-31T13:14:16.858Z,29.54
2018-05-31T13:16:44.283Z,29.88
2018-05-31T13:19:10.936Z,30.14
2018-05-31T13:21:37.581Z,30.06
2018-05-31T13:24:04.952Z,29.88
2018-05-31T13:26:49.896Z,29.58
2018-05-31T13:29:17.793Z,29.79
2018-05-31T13:31:44.524Z,30.32
2018-05-31T13:34:12.110Z,30.58
2018-05-31T13:36:38.777Z,30.84
2018-05-31T13:39:05.517Z,31.33
2018-05-31T13:41:32.160Z,31.76
2018-05-31T13:43:59.388Z,32.12
2018-05-31T13:46:26.048Z,32.41
2018-05-31T13:48:52.741Z,32.43
2018-05-31T13:51:19.364Z,32.13
2018-05-31T13:53:46.793Z,32.02
2018-05-31T13:56:13.463Z,32.11
2018-05-31T13:58:41.081Z,32.38
2018-05-31T14:01:07.818Z,32.82
2018-05-31T14:03:34.482Z,33.31
2018-05-31T14:06:01.182Z,33.91
2018-05-31T14:08:27.825Z,34.28
2018-05-31T14:10:54.537Z,33.15
2018-05-31T14:13:21.201Z,33.83
2018-05-31T14:15:47.885Z,34.35
2018-05-31T14:18:14.664Z,34.61
2018-05-31T14:20:41.916Z,34.93
2018-05-31T14:23:08.789Z,35.16
2018-05-31T14:25:35.483Z,34.57
2018-05-31T14:28:02.989Z,34.63
2018-05-31T14:30:29.645Z,34.70
2018-05-31T14:32:57.113Z,34.69
2018-05-31T14:35:23.777Z,34.95
2018-05-31T14:37:51.218Z,34.40
2018-05-31T14:40:17.908Z,34.27
2018-05-31T14:42:44.579Z,34.16
2018-05-31T14:45:11.249Z,34.06
2018-05-31T14:47:38.800Z,33.92
2018-05-31T14:50:06.222Z,33.81
2018-05-31T14:52:32.866Z,33.71
2018-05-31T14:54:59.533Z,33.47
2018-05-31T14:57:26.197Z,33.17
2018-05-31T14:59:52.861Z,32.41
2018-05-31T15:02:19.518Z,32.29
2018-05-31T15:04:47.136Z,32.37
2018-05-31T15:07:13.825Z,32.06
2018-05-31T15:09:40.630Z,32.42
2018-05-31T15:12:07.328Z,32.20
2018-05-31T15:14:35.487Z,32.16
2018-05-31T15:17:02.157Z,32.30
2018-05-31T15:19:29.557Z,32.36
2018-05-31T15:21:56.256Z,32.12
2018-05-31T15:24:23.689Z,30.88
2018-05-31T15:26:51.145Z,30.27
2018-05-31T15:29:17.865Z,29.88
2018-05-31T15:31:44.720Z,29.92
2018-05-31T15:34:11.370Z,29.96
2018-05-31T15:36:38.799Z,29.61
2018-05-31T15:39:05.933Z,29.52
2018-05-31T15:41:32.596Z,29.45
2018-05-31T15:44:00.386Z,29.44
2018-05-31T15:46:27.325Z,29.50
2018-05-31T15:48:53.995Z,29.61
2018-05-31T15:51:21.498Z,29.40
2018-05-31T15:53:48.215Z,28.69
2018-05-31T15:56:14.913Z,28.54
2018-05-31T15:58:41.782Z,28.56
2018-05-31T16:01:09.428Z,28.62
2018-05-31T16:03:36.071Z,28.96
2018-05-31T16:06:03.463Z,29.14
2018-05-31T16:08:30.303Z,29.09
2018-05-31T16:10:56.994Z,29.02
2018-05-31T16:13:23.665Z,28.27
2018-05-31T16:15:50.404Z,28.31
2018-05-31T16:18:17.930Z,28.10
2018-05-31T16:20:44.660Z,28.19
2018-05-31T16:23:11.429Z,28.13
2018-05-31T16:25:39.108Z,27.98
2018-05-31T16:28:05.869Z,28.04
2018-05-31T16:30:32.635Z,28.08
2018-05-31T16:32:59.312Z,27.93
2018-05-31T16:35:26.801Z,27.72
2018-05-31T16:37:53.495Z,27.72
2018-05-31T16:40:20.150Z,27.57
2018-05-31T16:42:47.550Z,27.68
2018-05-31T16:45:14.220Z,27.76
2018-05-31T16:47:40.893Z,27.44
2018-05-31T16:50:08.338Z,27.58
2018-05-31T16:52:34.992Z,27.64
2018-05-31T16:55:02.404Z,27.66
2018-05-31T16:57:29.116Z,27.76
2018-05-31T16:59:55.874Z,27.85
2018-05-31T17:02:22.548Z,27.68
2018-05-31T17:04:49.955Z,27.73
2018-05-31T17:07:16.696Z,27.79
2018-05-31T17:09:43.360Z,27.84
2018-05-31T17:12:10.053Z,27.78
2018-05-31T17:14:37.582Z,27.69
2018-05-31T17:17:04.377Z,27.68
2018-05-31T17:19:31.039Z,27.74
2018-05-31T17:21:57.751Z,27.69
2018-05-31T17:24:24.515Z,27.57
2018-05-31T17:26:51.265Z,27.63
2018-05-31T17:29:18.085Z,27.73
2018-05-31T17:31:44.733Z,27.66
2018-05-31T17:34:11.490Z,27.40
2018-05-31T17:36:38.136Z,27.27
2018-05-31T17:39:04.759Z,27.26
2018-05-31T17:41:31.430Z,27.44
2018-05-31T17:43:58.079Z,27.59
2018-05-31T17:46:25.538Z,27.68
2018-05-31T17:48:52.964Z,27.63
2018-05-31T17:51:19.669Z,27.62
2018-05-31T17:53:46.309Z,27.67
2018-05-31T17:56:12.989Z,27.70
2018-05-31T17:58:39.688Z,27.59
2018-05-31T18:01:06.375Z,27.63
2018-05-31T18:03:33.057Z,27.71
2018-05-31T18:05:59.733Z,27.56
2018-05-31T18:08:26.702Z,27.56
2018-05-31T18:10:53.333Z,27.53
2018-05-31T18:13:20.072Z,27.63
2018-05-31T18:15:46.757Z,27.43
2018-05-31T18:18:13.477Z,27.38
2018-05-31T18:20:41.129Z,27.37
2018-05-31T18:23:07.757Z,27.25
2018-05-31T18:25:35.274Z,27.29
2018-05-31T18:28:01.939Z,27.21
2018-05-31T18:30:28.652Z,27.24
2018-05-31T18:32:55.310Z,27.17
2018-05-31T18:35:22.048Z,27.06
2018-05-31T18:37:48.822Z,27.14
2018-05-31T18:40:15.488Z,27.20
2018-05-31T18:42:42.968Z,27.09
2018-05-31T18:45:09.604Z,27.09
2018-05-31T18:47:36.279Z,27.06
2018-05-31T18:50:02.918Z,26.95
2018-05-31T18:52:29.648Z,26.97
2018-05-31T18:54:56.448Z,26.95
2018-05-31T18:57:23.161Z,26.98
2018-05-31T18:59:49.837Z,26.93
2018-05-31T19:02:16.525Z,26.82
2018-05-31T19:04:43.407Z,26.84
2018-05-31T19:07:10.922Z,26.78
2018-05-31T19:09:37.553Z,26.64
2018-05-31T19:12:04.262Z,26.61
2018-05-31T19:14:31.701Z,26.59
2018-05-31T19:16:59.166Z,26.57
2018-05-31T19:19:31.825Z,26.58
2018-05-31T19:21:59.313Z,26.30
2018-05-31T19:24:32.995Z,26.27
2018-05-31T19:29:30.778Z,26.12
2018-05-31T19:31:58.219Z,26.23
2018-05-31T19:34:24.938Z,26.10
2018-05-31T19:36:57.701Z,26.00
2018-05-31T19:39:24.389Z,25.90
2018-05-31T19:41:53.031Z,25.91
2018-05-31T19:44:25.708Z,25.77
2018-05-31T19:46:52.393Z,25.70
2018-05-31T19:49:19.135Z,25.69
2018-05-31T19:51:51.757Z,25.63
2018-05-31T19:54:18.454Z,25.61
2018-05-31T19:56:45.970Z,25.58
2018-05-31T19:59:18.785Z,25.50
2018-05-31T20:01:51.543Z,25.44
2018-05-31T20:04:18.260Z,25.39
2018-05-31T20:06:44.895Z,25.26
2018-05-31T20:09:11.795Z,25.32
2018-05-31T20:11:38.479Z,25.24
2018-05-31T20:14:05.470Z,25.38
2018-05-31T20:16:32.150Z,25.22
2018-05-31T20:18:58.886Z,25.28
2018-05-31T20:21:25.533Z,25.37
2018-05-31T20:23:52.278Z,25.32
2018-05-31T20:26:18.974Z,25.29
2018-05-31T20:28:45.670Z,25.10
2018-05-31T20:31:12.354Z,25.00
2018-05-31T20:33:39.410Z,25.00
2018-05-31T20:36:06.101Z,25.08
2018-05-31T20:38:32.779Z,25.06
2018-05-31T20:40:59.447Z,25.02
2018-05-31T20:43:26.910Z,24.98
2018-05-31T20:45:54.313Z,24.93
2018-05-31T20:48:21.062Z,24.99
2018-05-31T20:50:47.826Z,25.08
2018-05-31T20:53:14.526Z,24.92
2018-05-31T20:55:41.257Z,24.76
2018-05-31T20:58:07.950Z,24.67
2018-05-31T21:00:35.381Z,24.68
2018-05-31T21:03:02.051Z,24.78
2018-05-31T21:05:29.451Z,24.89
2018-05-31T21:07:56.209Z,24.87
2018-05-31T21:10:22.893Z,24.76
2018-05-31T21:12:50.318Z,24.75
2018-05-31T21:15:16.980Z,24.62
2018-05-31T21:17:44.399Z,24.65
2018-05-31T21:20:11.221Z,24.59
2018-05-31T21:22:37.901Z,24.59
2018-05-31T21:25:04.644Z,24.55
2018-05-31T21:27:32.786Z,24.56
2018-05-31T21:29:59.486Z,24.36
2018-05-31T21:32:26.177Z,24.51
2018-05-31T21:34:52.874Z,24.42
2018-05-31T21:37:19.684Z,24.41
2018-05-31T21:39:46.492Z,24.34
2018-05-31T21:42:13.161Z,24.20
2018-05-31T21:44:39.821Z,24.26
2018-05-31T21:47:07.267Z,24.25
2018-05-31T21:49:33.921Z,24.13
2018-05-31T21:52:01.481Z,24.04
2018-05-31T21:54:28.893Z,23.92
2018-05-31T21:56:55.562Z,23.85
2018-05-31T21:59:22.319Z,24.05
2018-05-31T22:01:49.873Z,23.99
2018-05-31T22:04:17.271Z,23.93
2018-05-31T22:06:43.935Z,23.78
2018-05-31T22:09:10.629Z,23.85
2018-05-31T22:11:37.515Z,23.87
2018-05-31T22:14:04.172Z,23.78
2018-05-31T22:16:30.928Z,23.74
2018-05-31T22:18:57.556Z,23.56
2018-05-31T22:21:24.222Z,23.57
2018-05-31T22:23:51.633Z,23.45
2018-05-31T22:26:19.069Z,23.45
2018-05-31T22:28:45.708Z,23.40
2018-05-31T22:31:12.336Z,23.49
2018-05-31T22:33:38.990Z,23.36
2018-05-31T22:36:05.665Z,23.21
2018-05-31T22:38:32.337Z,23.15
2018-05-31T22:40:59.028Z,23.14
2018-05-31T22:43:25.696Z,23.13
2018-05-31T22:45:53.110Z,23.29
2018-05-31T22:48:19.918Z,23.13
2018-05-31T22:50:46.586Z,23.11
2018-05-31T22:53:13.303Z,23.13
2018-05-31T22:55:39.951Z,23.10
2018-05-31T22:58:06.645Z,23.00
2018-05-31T23:00:33.341Z,23.11
2018-05-31T23:03:00.129Z,23.15
2018-05-31T23:05:26.801Z,23.04
2018-05-31T23:07:53.509Z,23.11
2018-05-31T23:10:20.925Z,23.18
2018-05-31T23:12:47.646Z,23.25
2018-05-31T23:15:14.339Z,23.04
2018-05-31T23:17:42.485Z,23.03
2018-05-31T23:20:09.148Z,23.06
2018-05-31T23:22:35.881Z,23.08
2018-05-31T23:25:03.285Z,23.06
2018-05-31T23:27:29.912Z,23.12
2018-05-31T23:29:57.297Z,23.09
2018-05-31T23:32:24.158Z,23.13
2018-05-31T23:34:50.928Z,23.11
2018-05-31T23:37:17.601Z,22.97
2018-05-31T23:39:44.364Z,22.92
2018-05-31T23:42:10.999Z,23.06
2018-05-31T23:44:37.657Z,23.07
2018-05-31T23:47:04.328Z,22.98
2018-05-31T23:49:31.780Z,22.85
2018-05-31T23:51:58.428Z,22.91
2018-05-31T23:54:25.803Z,23.02
2018-05-31T23:56:52.449Z,22.89
2018-05-31T23:59:19.229Z,22.73
